Time;durP1;ratioP1;P1;durP2;ratioP2;P2;SDS_P1;SDS_P2;PMS_P1;PMS_P2;Temp;Humidity;BMP_temperature;BMP_pressure;BME280_temperature;BME280_humidity;BME280_pressure;Samples;Min_cycle;Max_cycle;Signal;HPM_P1;HPM_P2
2021/03/31 00:01:21;;;;;;;6.97;4.70;;;13.50;58.20;;;;;;6288917;28;20823;-63
2021/03/31 00:04:24;;;;;;;6.23;3.93;;;13.50;58.30;;;;;;6297873;28;20500;-63
2021/03/31 00:07:27;;;;;;;5.93;4.30;;;13.50;58.40;;;;;;6277901;28;20482;-62
2021/03/31 00:10:34;;;;;;;5.93;4.83;;;13.50;58.40;;;;;;6277503;28;20967;-62
2021/03/31 00:13:38;;;;;;;6.50;5.20;;;13.40;58.50;;;;;;6268858;28;20572;-63
2021/03/31 00:16:40;;;;;;;6.37;4.87;;;13.40;58.80;;;;;;6276106;28;20478;-64
2021/03/31 00:19:43;;;;;;;6.70;5.30;;;13.30;58.90;;;;;;6276532;28;21002;-63
2021/03/31 00:22:45;;;;;;;7.10;5.27;;;13.30;59.00;;;;;;6275080;28;20493;-63
2021/03/31 00:25:48;;;;;;;7.07;4.90;;;13.30;61.10;;;;;;6275375;28;20474;-63
2021/03/31 00:28:53;;;;;;;7.97;5.00;;;13.30;61.80;;;;;;6281629;28;20626;-63
2021/03/31 00:31:55;;;;;;;6.50;4.80;;;13.30;61.70;;;;;;6286552;28;20820;-63
2021/03/31 00:34:58;;;;;;;5.83;5.07;;;13.20;61.50;;;;;;6284834;28;20475;-63
2021/03/31 00:38:01;;;;;;;5.23;4.73;;;13.20;62.00;;;;;;6287826;28;20469;-63
2021/03/31 00:41:04;;;;;;;6.53;4.47;;;13.20;61.50;;;;;;6286838;28;20946;-63
2021/03/31 00:44:07;;;;;;;7.13;5.07;;;13.20;61.90;;;;;;6288956;28;20486;-63
2021/03/31 00:47:09;;;;;;;9.57;5.47;;;13.20;61.90;;;;;;6286562;28;20485;-63
2021/03/31 00:50:14;;;;;;;8.00;4.83;;;13.20;62.00;;;;;;6288405;28;20469;-63
2021/03/31 00:53:19;;;;;;;8.40;6.03;;;13.10;61.70;;;;;;6275392;28;20483;-64
2021/03/31 00:56:21;;;;;;;9.30;5.10;;;13.10;62.70;;;;;;6275768;28;20485;-64
2021/03/31 00:59:23;;;;;;;12.20;5.90;;;13.20;63.00;;;;;;6275625;28;20462;-63
2021/03/31 01:02:25;;;;;;;10.60;5.47;;;13.10;62.20;;;;;;6275275;28;20470;-63
2021/03/31 01:05:30;;;;;;;5.67;4.60;;;13.10;62.20;;;;;;6275388;28;20474;-63
2021/03/31 01:08:33;;;;;;;5.80;4.67;;;13.10;62.50;;;;;;6275216;28;20475;-63
2021/03/31 01:11:43;;;;;;;6.50;4.97;;;13.10;62.80;;;;;;6274897;28;20488;-63
2021/03/31 01:14:56;;;;;;;10.07;5.67;;;13.00;62.80;;;;;;6275334;28;20474;-62
2021/03/31 01:18:03;;;;;;;8.33;5.00;;;13.00;62.60;;;;;;6270549;28;20550;-63
2021/03/31 01:21:56;;;;;;;6.73;5.03;;;13.00;62.70;;;;;;6274214;28;20800;-63
2021/03/31 01:25:15;;;;;;;6.20;4.43;;;12.90;62.60;;;;;;6274890;28;20567;-63
2021/03/31 01:28:44;;;;;;;8.23;4.90;;;12.90;62.60;;;;;;6274855;28;20467;-63
2021/03/31 01:32:01;;;;;;;8.17;4.70;;;12.90;62.70;;;;;;6275720;28;20485;-63
2021/03/31 01:35:07;;;;;;;9.37;5.03;;;12.80;62.70;;;;;;6275819;28;20595;-63
2021/03/31 01:38:13;;;;;;;9.23;6.13;;;12.80;63.10;;;;;;6275927;28;20485;-63
2021/03/31 01:41:18;;;;;;;11.17;5.33;;;12.80;63.00;;;;;;6276370;28;20474;-63
2021/03/31 01:44:23;;;;;;;6.20;4.40;;;12.70;62.60;;;;;;6275707;28;20991;-64
2021/03/31 01:47:28;;;;;;;8.93;6.60;;;12.70;62.90;;;;;;6275515;28;20489;-64
2021/03/31 01:50:34;;;;;;;7.80;5.17;;;12.70;62.90;;;;;;6276341;28;20983;-64
2021/03/31 01:53:39;;;;;;;9.13;6.03;;;12.60;63.10;;;;;;6275640;28;20520;-64
2021/03/31 01:56:42;;;;;;;8.43;5.90;;;12.60;63.80;;;;;;6275284;28;20976;-63
2021/03/31 01:59:48;;;;;;;11.80;7.90;;;12.60;64.00;;;;;;6275372;28;20566;-64
2021/03/31 02:02:54;;;;;;;11.60;7.43;;;12.50;64.00;;;;;;6274916;28;20479;-64
2021/03/31 02:05:58;;;;;;;10.77;7.00;;;12.50;64.10;;;;;;6275273;28;20475;-64
2021/03/31 02:09:01;;;;;;;14.17;8.90;;;12.40;65.10;;;;;;6274991;28;20471;-64
2021/03/31 02:12:04;;;;;;;11.20;6.40;;;12.40;64.70;;;;;;6275210;28;20504;-64
2021/03/31 02:15:08;;;;;;;10.70;5.33;;;12.40;64.90;;;;;;6275190;28;20473;-64
2021/03/31 02:18:14;;;;;;;9.40;5.53;;;12.30;65.30;;;;;;6274652;28;20557;-64
2021/03/31 02:21:17;;;;;;;12.30;5.10;;;12.20;65.90;;;;;;6274794;28;20485;-64
2021/03/31 02:24:21;;;;;;;8.80;5.50;;;12.20;66.10;;;;;;6273446;28;21013;-63
2021/03/31 02:27:24;;;;;;;6.27;4.60;;;12.20;66.10;;;;;;6274915;28;20435;-63
2021/03/31 02:30:29;;;;;;;7.80;4.50;;;12.20;66.00;;;;;;6274708;28;20517;-63
2021/03/31 02:33:31;;;;;;;5.47;4.67;;;12.20;66.10;;;;;;6273643;28;20473;-64
2021/03/31 02:36:37;;;;;;;7.77;4.87;;;12.10;66.00;;;;;;6274987;28;20453;-64
2021/03/31 02:39:42;;;;;;;7.73;4.50;;;12.10;66.50;;;;;;6274874;28;20472;-63
2021/03/31 02:42:46;;;;;;;8.83;4.20;;;12.10;66.50;;;;;;6274758;28;20481;-64
2021/03/31 02:45:51;;;;;;;5.50;4.30;;;12.10;66.50;;;;;;6274830;28;20549;-64
2021/03/31 02:48:54;;;;;;;8.13;4.70;;;12.10;67.40;;;;;;6274264;28;20493;-64
2021/03/31 02:51:59;;;;;;;8.40;4.60;;;12.10;66.80;;;;;;6274482;28;20488;-64
2021/03/31 02:55:03;;;;;;;5.83;3.73;;;12.10;67.20;;;;;;6274378;28;20466;-64
2021/03/31 02:58:10;;;;;;;6.30;4.10;;;12.00;66.80;;;;;;6274923;28;20545;-64
2021/03/31 03:01:13;;;;;;;5.70;4.50;;;12.00;67.10;;;;;;6274458;28;20983;-64
2021/03/31 03:04:16;;;;;;;9.63;3.80;;;12.00;67.60;;;;;;6274253;28;20466;-64
2021/03/31 03:07:20;;;;;;;5.37;3.50;;;11.90;67.70;;;;;;6274085;28;20799;-64
2021/03/31 03:10:22;;;;;;;5.00;3.60;;;11.90;67.60;;;;;;6274522;28;20474;-64
2021/03/31 03:13:26;;;;;;;5.33;3.73;;;11.90;67.60;;;;;;6274054;28;20543;-64
2021/03/31 03:16:28;;;;;;;5.40;4.17;;;11.90;67.80;;;;;;6273833;28;20470;-64
2021/03/31 03:19:31;;;;;;;6.83;5.07;;;11.80;67.80;;;;;;6273831;28;20963;-64
2021/03/31 03:22:34;;;;;;;4.53;3.30;;;11.80;68.20;;;;;;6274062;28;20492;-64
2021/03/31 03:25:37;;;;;;;5.47;3.63;;;11.70;68.40;;;;;;6273858;28;20559;-64
2021/03/31 03:28:40;;;;;;;7.10;3.83;;;11.70;68.40;;;;;;6274283;28;20488;-64
2021/03/31 03:31:44;;;;;;;5.97;3.37;;;11.70;68.70;;;;;;6274007;28;20560;-64
2021/03/31 03:34:48;;;;;;;4.87;3.80;;;11.60;69.00;;;;;;6273652;28;20972;-64
2021/03/31 03:37:52;;;;;;;9.20;3.90;;;11.50;68.90;;;;;;6273760;28;20552;-64
2021/03/31 03:40:54;;;;;;;3.73;3.13;;;11.50;69.20;;;;;;6273943;28;20466;-65
2021/03/31 03:43:56;;;;;;;7.80;3.50;;;11.50;69.40;;;;;;6276541;28;20477;-62
2021/03/31 03:47:00;;;;;;;5.10;3.30;;;11.50;69.70;;;;;;6278164;28;20472;-62
2021/03/31 03:50:02;;;;;;;5.30;3.33;;;11.40;70.00;;;;;;6278616;28;20484;-62
2021/03/31 03:53:06;;;;;;;5.80;3.50;;;11.30;70.50;;;;;;6278062;28;20478;-62
2021/03/31 03:56:12;;;;;;;4.40;3.67;;;11.30;70.50;;;;;;6278420;28;20476;-63
2021/03/31 03:59:19;;;;;;;3.63;3.20;;;11.30;70.90;;;;;;6277988;28;20991;-63
2021/03/31 04:02:21;;;;;;;4.33;3.17;;;11.20;71.00;;;;;;6278259;28;20470;-64
2021/03/31 04:05:24;;;;;;;4.93;3.67;;;11.10;72.10;;;;;;6277826;28;20488;-64
2021/03/31 04:08:27;;;;;;;6.47;3.87;;;11.10;71.60;;;;;;6277890;28;20485;-64
2021/03/31 04:11:30;;;;;;;4.07;3.67;;;11.10;71.90;;;;;;6277709;28;20475;-64
2021/03/31 04:14:33;;;;;;;4.93;3.57;;;11.10;72.80;;;;;;6277797;28;20474;-64
2021/03/31 04:17:38;;;;;;;8.63;4.20;;;11.10;72.20;;;;;;6277772;28;20481;-64
2021/03/31 04:20:42;;;;;;;7.27;4.87;;;11.00;72.50;;;;;;6277587;28;20475;-64
2021/03/31 04:23:45;;;;;;;7.40;5.03;;;11.00;72.80;;;;;;6277395;28;20482;-64
2021/03/31 04:26:50;;;;;;;6.80;4.17;;;11.00;72.90;;;;;;6277510;28;20987;-64
2021/03/31 04:29:54;;;;;;;9.67;4.40;;;11.00;73.00;;;;;;6268338;28;21001;-64
2021/03/31 04:32:58;;;;;;;7.17;4.07;;;11.00;73.40;;;;;;6276509;28;20474;-64
2021/03/31 04:36:01;;;;;;;6.57;3.60;;;11.00;73.40;;;;;;6277204;28;20475;-64
2021/03/31 04:39:06;;;;;;;4.43;3.60;;;10.90;73.50;;;;;;6277167;28;20466;-61
2021/03/31 04:42:09;;;;;;;5.30;3.60;;;10.90;74.00;;;;;;6276695;28;20978;-61
2021/03/31 04:45:14;;;;;;;10.50;3.87;;;10.90;74.10;;;;;;6276948;28;20955;-61
2021/03/31 04:48:16;;;;;;;6.00;3.97;;;10.90;74.20;;;;;;6277046;28;20550;-64
2021/03/31 04:51:19;;;;;;;5.93;3.33;;;10.90;74.30;;;;;;6277531;28;20476;-62
2021/03/31 04:54:22;;;;;;;5.30;3.70;;;10.80;74.70;;;;;;6275919;28;20442;-64
2021/03/31 04:57:24;;;;;;;6.50;4.23;;;10.80;74.90;;;;;;6276583;28;20914;-61
2021/03/31 05:00:27;;;;;;;5.37;4.00;;;10.90;75.00;;;;;;6276175;28;20794;-60
2021/03/31 05:03:29;;;;;;;6.57;3.93;;;10.90;75.00;;;;;;6275306;28;20932;-60
2021/03/31 05:06:32;;;;;;;4.83;3.47;;;10.90;74.80;;;;;;6276234;28;20531;-60
2021/03/31 05:09:35;;;;;;;6.60;4.40;;;10.90;74.80;;;;;;6276563;28;20437;-61
2021/03/31 05:12:37;;;;;;;3.93;3.50;;;10.90;74.90;;;;;;6276438;28;20471;-61
2021/03/31 05:15:40;;;;;;;9.93;4.40;;;10.90;74.80;;;;;;6276628;28;20465;-61
2021/03/31 05:18:42;;;;;;;8.10;3.93;;;11.00;74.80;;;;;;6276104;28;20472;-61
2021/03/31 05:21:44;;;;;;;4.73;4.23;;;11.00;74.90;;;;;;6276261;28;20489;-61
2021/03/31 05:24:47;;;;;;;7.40;4.33;;;11.10;74.70;;;;;;6276205;28;20964;-61
2021/03/31 05:27:49;;;;;;;4.50;4.10;;;11.10;74.10;;;;;;6275228;28;20468;-61
2021/03/31 05:30:52;;;;;;;12.00;5.93;;;11.20;74.00;;;;;;6270888;28;20466;-60
2021/03/31 05:33:54;;;;;;;6.43;4.80;;;11.10;74.90;;;;;;6274856;28;20959;-60
2021/03/31 05:36:57;;;;;;;6.87;4.53;;;11.00;74.10;;;;;;6275875;28;20470;-60
2021/03/31 05:40:00;;;;;;;6.00;4.23;;;11.10;73.80;;;;;;6275320;28;20940;-60
2021/03/31 05:43:02;;;;;;;5.87;4.50;;;11.20;73.90;;;;;;6275367;28;20471;-61
2021/03/31 05:46:08;;;;;;;6.30;3.43;;;11.30;73.70;;;;;;6275273;28;20953;-61
2021/03/31 05:49:10;;;;;;;7.70;3.97;;;11.30;73.50;;;;;;6275416;28;20472;-61
2021/03/31 05:52:13;;;;;;;7.20;4.30;;;11.40;73.50;;;;;;6275305;28;20480;-61
2021/03/31 05:55:17;;;;;;;7.87;4.53;;;11.50;74.10;;;;;;6275039;28;20470;-61
2021/03/31 05:58:21;;;;;;;11.83;4.20;;;11.60;73.10;;;;;;6275201;28;20469;-61
2021/03/31 06:01:23;;;;;;;7.53;3.80;;;11.70;72.80;;;;;;6275166;28;20478;-61
2021/03/31 06:04:26;;;;;;;7.73;4.27;;;11.80;73.20;;;;;;6275202;28;20470;-61
2021/03/31 06:07:28;;;;;;;5.40;4.37;;;11.80;72.00;;;;;;6274983;28;20527;-61
2021/03/31 06:10:32;;;;;;;8.03;5.30;;;12.00;71.50;;;;;;6274875;28;20477;-61
2021/03/31 06:13:50;;;;;;;10.20;5.57;;;12.10;71.40;;;;;;6274869;28;20624;-61
2021/03/31 06:16:52;;;;;;;8.10;5.20;;;12.20;70.90;;;;;;6274556;28;20984;-61
2021/03/31 06:19:54;;;;;;;9.10;4.37;;;12.30;70.40;;;;;;6274802;28;20795;-61
2021/03/31 06:23:07;;;;;;;9.27;4.40;;;12.40;70.00;;;;;;6274308;28;20489;-61
2021/03/31 06:26:26;;;;;;;10.63;4.70;;;12.70;70.00;;;;;;6275006;28;20490;-62
2021/03/31 06:29:43;;;;;;;10.80;5.70;;;13.00;68.50;;;;;;6273732;28;20540;-61
2021/03/31 06:32:46;;;;;;;12.13;4.27;;;13.30;67.70;;;;;;6274505;28;20620;-61
2021/03/31 06:35:51;;;;;;;5.97;3.90;;;13.90;66.90;;;;;;6270121;28;20476;-61
2021/03/31 06:38:53;;;;;;;5.83;3.57;;;15.70;61.90;;;;;;6274460;28;20477;-62
2021/03/31 06:41:59;;;;;;;8.43;4.20;;;17.80;56.40;;;;;;6274480;28;20470;-61
2021/03/31 06:45:05;;;;;;;5.27;3.13;;;19.80;50.90;;;;;;6274332;28;20522;-62
2021/03/31 06:48:08;;;;;;;10.30;4.27;;;21.50;46.10;;;;;;6274408;28;20224;-62
2021/03/31 06:51:27;;;;;;;10.30;4.37;;;22.70;41.80;;;;;;6274220;28;20563;-62
2021/03/31 06:54:41;;;;;;;6.90;4.07;;;24.10;39.50;;;;;;6274095;28;20622;-61
2021/03/31 06:57:52;;;;;;;6.10;3.60;;;25.20;36.90;;;;;;6274416;28;20564;-61
2021/03/31 07:00:54;;;;;;;8.63;4.23;;;26.50;34.50;;;;;;6274586;28;20231;-62
2021/03/31 07:03:57;;;;;;;10.23;4.80;;;27.50;32.30;;;;;;6275052;28;20417;-61
2021/03/31 07:07:02;;;;;;;6.27;4.10;;;28.50;30.80;;;;;;6273910;28;20671;-62
2021/03/31 07:10:08;;;;;;;6.60;4.30;;;29.10;29.10;;;;;;6274979;28;20258;-62
2021/03/31 07:13:25;;;;;;;11.83;4.83;;;29.90;28.40;;;;;;6274236;28;20241;-60
2021/03/31 07:16:27;;;;;;;4.47;4.07;;;30.70;27.60;;;;;;6274401;28;20223;-61
2021/03/31 07:19:29;;;;;;;11.10;4.57;;;31.50;26.50;;;;;;6286006;28;20233;-63
2021/03/31 07:22:43;;;;;;;5.30;4.53;;;32.30;25.60;;;;;;6280221;28;20685;-62
2021/03/31 07:25:45;;;;;;;10.03;4.20;;;32.70;24.50;;;;;;6296395;28;20231;-61
2021/03/31 07:28:51;;;;;;;6.78;3.88;;;32.40;24.40;;;;;;6296743;28;20305;-61
2021/03/31 07:31:55;;;;;;;8.07;4.75;;;33.00;24.00;;;;;;6296167;28;20570;-61
2021/03/31 07:34:59;;;;;;;12.23;4.55;;;33.30;23.60;;;;;;6303946;28;20222;-62
2021/03/31 07:38:03;;;;;;;11.93;5.03;;;33.30;23.50;;;;;;6303445;28;20234;-61
2021/03/31 07:41:08;;;;;;;10.73;4.20;;;33.80;23.60;;;;;;6303610;28;20231;-62
2021/03/31 07:44:18;;;;;;;7.88;4.00;;;34.70;22.50;;;;;;6303424;28;20238;-61
2021/03/31 07:47:21;;;;;;;8.10;4.18;;;35.60;22.10;;;;;;6303284;28;20247;-61
2021/03/31 07:50:26;;;;;;;8.68;4.43;;;36.80;21.30;;;;;;6303955;28;20226;-62
2021/03/31 07:53:29;;;;;;;9.70;4.18;;;37.80;21.10;;;;;;6303043;28;20241;-62
2021/03/31 07:56:35;;;;;;;7.40;4.38;;;38.20;19.90;;;;;;6303014;28;20218;-61
2021/03/31 07:59:40;;;;;;;8.15;4.30;;;38.90;19.50;;;;;;6303121;28;20238;-62
2021/03/31 08:02:44;;;;;;;10.38;4.68;;;38.80;19.20;;;;;;6302783;28;20241;-62
2021/03/31 08:06:02;;;;;;;9.75;4.10;;;39.50;18.80;;;;;;6302911;28;20231;-62
2021/03/31 08:09:07;;;;;;;7.20;4.63;;;40.50;18.40;;;;;;6291010;28;20222;-62
2021/03/31 08:12:10;;;;;;;6.20;4.28;;;41.50;17.80;;;;;;6302962;28;20309;-62
2021/03/31 08:15:41;;;;;;;6.55;4.55;;;42.10;17.20;;;;;;6302260;28;20226;-62
2021/03/31 08:18:43;;;;;;;7.88;4.85;;;43.10;16.70;;;;;;6302511;28;20230;-62
2021/03/31 08:21:47;;;;;;;7.65;4.65;;;43.80;16.30;;;;;;6302561;28;20230;-62
2021/03/31 08:24:52;;;;;;;5.70;4.80;;;44.60;15.90;;;;;;6302291;28;20230;-62
2021/03/31 08:27:59;;;;;;;5.40;4.43;;;44.90;15.30;;;;;;6302540;28;20364;-62
2021/03/31 08:31:20;;;;;;;6.35;5.00;;;45.10;14.90;;;;;;6300450;28;20222;-63
2021/03/31 08:34:24;;;;;;;8.48;4.97;;;45.70;14.60;;;;;;6288370;28;20560;-60
2021/03/31 08:37:29;;;;;;;6.68;4.80;;;46.40;14.90;;;;;;6283154;28;20237;-60
2021/03/31 08:40:33;;;;;;;5.55;4.13;;;47.00;14.10;;;;;;6282979;28;20237;-60
2021/03/31 08:43:39;;;;;;;11.13;5.50;;;47.40;14.00;;;;;;6267723;28;20642;-60
2021/03/31 08:46:43;;;;;;;7.75;6.10;;;47.90;13.60;;;;;;6276260;28;20231;-59
2021/03/31 08:49:46;;;;;;;5.88;5.28;;;48.20;13.60;;;;;;6281515;28;20352;-61
2021/03/31 08:52:58;;;;;;;6.65;5.95;;;48.70;13.10;;;;;;6301361;28;20664;-60
2021/03/31 08:56:02;;;;;;;6.70;6.10;;;49.30;12.80;;;;;;6301797;28;20223;-59
2021/03/31 08:59:05;;;;;;;8.55;6.28;;;49.20;12.40;;;;;;6301676;28;20714;-59
2021/03/31 09:02:09;;;;;;;6.57;5.53;;;49.90;12.60;;;;;;6300867;28;20230;-59
2021/03/31 09:05:32;;;;;;;7.13;5.95;;;50.20;12.30;;;;;;6300038;28;20660;-63
2021/03/31 09:08:34;;;;;;;8.32;5.88;;;50.10;12.30;;;;;;6295265;28;20578;-60
2021/03/31 09:11:36;;;;;;;6.63;5.93;;;50.40;12.20;;;;;;6301177;28;20380;-60
2021/03/31 09:14:41;;;;;;;7.18;6.47;;;51.20;11.90;;;;;;6300918;28;20230;-60
2021/03/31 09:17:47;;;;;;;7.13;6.32;;;50.60;12.00;;;;;;6300914;28;20312;-60
2021/03/31 09:20:50;;;;;;;8.77;6.80;;;50.00;12.00;;;;;;6300990;28;20242;-60
2021/03/31 09:23:52;;;;;;;6.68;5.85;;;51.10;11.90;;;;;;6283347;28;20227;-60
2021/03/31 09:26:56;;;;;;;9.40;5.55;;;51.40;11.80;;;;;;6275850;28;20231;-60
2021/03/31 09:30:02;;;;;;;7.70;6.57;;;51.80;11.60;;;;;;6275598;28;20658;-60
2021/03/31 09:33:14;;;;;;;7.32;6.10;;;52.60;11.50;;;;;;6277045;28;20219;-61
2021/03/31 09:36:20;;;;;;;8.65;7.10;;;52.70;11.20;;;;;;6275704;28;20234;-60
2021/03/31 09:39:38;;;;;;;9.52;7.15;;;52.70;11.20;;;;;;6275555;28;20204;-60
2021/03/31 09:42:44;;;;;;;9.98;7.25;;;51.50;11.40;;;;;;6273701;28;20226;-60
2021/03/31 09:45:53;;;;;;;8.32;6.65;;;51.40;12.00;;;;;;6295510;28;20701;-60
2021/03/31 09:48:57;;;;;;;9.32;8.32;;;51.70;12.00;;;;;;6300453;28;20240;-60
2021/03/31 09:52:01;;;;;;;8.60;7.68;;;51.60;11.50;;;;;;6299752;28;20575;-61
2021/03/31 09:55:06;;;;;;;9.10;8.30;;;51.60;11.30;;;;;;6300230;28;20305;-61
2021/03/31 09:58:09;;;;;;;10.18;8.32;;;50.80;11.50;;;;;;6300067;28;20328;-60
2021/03/31 10:01:13;;;;;;;10.23;8.88;;;51.10;11.60;;;;;;6299653;28;20314;-62
2021/03/31 10:04:17;;;;;;;9.00;7.38;;;51.10;11.60;;;;;;6299690;28;20230;-59
2021/03/31 10:07:30;;;;;;;8.48;7.68;;;51.10;11.60;;;;;;6299601;28;20579;-61
2021/03/31 10:10:43;;;;;;;8.48;7.55;;;51.20;11.60;;;;;;6299797;28;20227;-61
2021/03/31 10:13:45;;;;;;;8.70;7.80;;;50.10;11.70;;;;;;6299417;28;20235;-60
2021/03/31 10:16:50;;;;;;;8.52;7.43;;;47.00;12.80;;;;;;6299272;28;20305;-61
2021/03/31 10:19:53;;;;;;;10.63;7.78;;;45.60;13.60;;;;;;6299530;28;20683;-61
2021/03/31 10:22:55;;;;;;;10.18;7.80;;;43.90;14.10;;;;;;6299482;28;20231;-61
2021/03/31 10:26:23;;;;;;;13.00;8.65;;;42.10;14.90;;;;;;6299554;28;20339;-61
2021/03/31 10:29:28;;;;;;;9.85;8.85;;;40.20;15.70;;;;;;6299353;28;20230;-60
2021/03/31 10:32:47;;;;;;;9.40;8.38;;;38.40;16.70;;;;;;6295740;28;20231;-60
2021/03/31 10:35:52;;;;;;;10.50;8.75;;;37.10;17.70;;;;;;6253743;28;20219;-62
2021/03/31 10:39:10;;;;;;;10.40;8.75;;;35.90;18.50;;;;;;6249509;28;20228;-60
2021/03/31 10:49:11;;;;;;;12.68;8.80;;;31.10;21.60;;;;;;6299507;28;20236;-61
2021/03/31 10:52:16;;;;;;;11.07;8.85;;;30.50;22.40;;;;;;6297956;28;20311;-59
2021/03/31 10:55:20;;;;;;;14.60;9.10;;;30.50;22.70;;;;;;6299181;28;20218;-60
2021/03/31 10:58:22;;;;;;;13.13;8.95;;;30.20;22.90;;;;;;6298973;28;20233;-59
2021/03/31 11:01:25;;;;;;;12.00;8.73;;;29.90;23.20;;;;;;6299246;28;20233;-59
2021/03/31 11:04:27;;;;;;;9.80;8.80;;;29.30;23.50;;;;;;6298748;28;20706;-59
2021/03/31 11:07:31;;;;;;;11.30;8.97;;;29.00;23.90;;;;;;6290225;28;20227;-59
2021/03/31 11:10:33;;;;;;;9.80;8.60;;;28.80;23.80;;;;;;6274410;28;20240;-60
2021/03/31 11:13:35;;;;;;;9.43;8.43;;;28.50;24.00;;;;;;6273859;28;20231;-61
2021/03/31 11:16:40;;;;;;;9.63;7.87;;;28.20;24.30;;;;;;6274462;28;20222;-60
2021/03/31 11:19:51;;;;;;;8.40;7.60;;;27.90;24.30;;;;;;6273954;28;20227;-60
2021/03/31 11:26:29;;;;;;;9.70;7.17;;;28.00;24.50;;;;;;6246589;28;20227;-60
2021/03/31 11:29:31;;;;;;;8.80;7.87;;;28.40;24.10;;;;;;6246382;28;20244;-61
2021/03/31 11:32:33;;;;;;;12.13;8.07;;;28.50;24.10;;;;;;6272536;28;20591;-60
2021/03/31 11:35:36;;;;;;;8.97;7.73;;;28.70;24.20;;;;;;6255131;28;20689;-60
2021/03/31 11:38:39;;;;;;;11.40;7.83;;;28.60;23.80;;;;;;6267456;28;20231;-62
2021/03/31 11:41:41;;;;;;;8.80;7.63;;;28.10;24.70;;;;;;6279610;28;20314;-61
2021/03/31 11:44:45;;;;;;;10.73;7.60;;;28.10;24.30;;;;;;6273956;28;20579;-60
2021/03/31 11:47:47;;;;;;;8.50;7.40;;;28.00;24.60;;;;;;6272964;28;20242;-61
2021/03/31 11:50:50;;;;;;;8.03;6.97;;;27.80;24.50;;;;;;6269806;28;20231;-61
2021/03/31 11:53:53;;;;;;;7.67;6.90;;;28.00;24.50;;;;;;6269958;28;20249;-61
2021/03/31 11:56:55;;;;;;;14.90;11.93;;;28.00;24.50;;;;;;6260709;28;20281;-62
2021/03/31 11:59:58;;;;;;;7.70;6.50;;;28.10;24.90;;;;;;6270248;28;20238;-63
2021/03/31 12:03:04;;;;;;;9.27;7.90;;;28.00;24.60;;;;;;6270361;28;20708;-62
2021/03/31 12:06:07;;;;;;;8.43;7.60;;;27.80;25.00;;;;;;6277039;28;20314;-62
2021/03/31 12:09:11;;;;;;;14.73;8.00;;;27.90;25.40;;;;;;6277787;28;20707;-62
2021/03/31 12:12:14;;;;;;;11.00;7.80;;;27.90;25.00;;;;;;6277745;28;20566;-62
2021/03/31 12:15:16;;;;;;;7.33;6.63;;;27.70;25.00;;;;;;6277904;28;20293;-61
2021/03/31 12:18:19;;;;;;;7.93;6.83;;;27.90;24.70;;;;;;6277514;28;20536;-62
2021/03/31 12:21:21;;;;;;;9.00;7.27;;;28.00;24.50;;;;;;6277349;28;20231;-62
2021/03/31 12:24:25;;;;;;;8.10;6.20;;;28.00;24.50;;;;;;6277547;28;20218;-63
2021/03/31 12:27:28;;;;;;;7.73;6.70;;;28.20;24.30;;;;;;6277620;28;20297;-61
2021/03/31 12:30:34;;;;;;;9.20;6.30;;;27.80;25.10;;;;;;6277630;28;20235;-61
2021/03/31 12:33:36;;;;;;;10.07;7.43;;;27.90;25.10;;;;;;6278695;28;20676;-62
2021/03/31 12:36:40;;;;;;;10.23;8.03;;;27.50;25.70;;;;;;6277812;28;20214;-62
2021/03/31 12:39:43;;;;;;;10.80;8.23;;;27.40;25.80;;;;;;6278777;28;20350;-62
2021/03/31 12:42:45;;;;;;;8.50;7.70;;;27.50;25.80;;;;;;6302410;28;20268;-61
2021/03/31 12:45:47;;;;;;;9.70;7.23;;;27.30;25.80;;;;;;6301872;28;20233;-61
2021/03/31 12:48:49;;;;;;;8.90;8.00;;;27.40;25.80;;;;;;6302202;28;20679;-61
2021/03/31 12:51:55;;;;;;;8.57;6.30;;;27.60;25.50;;;;;;6301928;28;20316;-62
2021/03/31 12:55:01;;;;;;;10.87;6.63;;;27.50;25.20;;;;;;6302014;28;20226;-63
2021/03/31 12:58:10;;;;;;;9.30;8.00;;;27.60;25.30;;;;;;6296638;28;20227;-61
2021/03/31 13:01:15;;;;;;;9.87;8.67;;;27.70;25.50;;;;;;6301517;28;20572;-64
2021/03/31 13:04:37;;;;;;;8.00;7.20;;;27.50;26.00;;;;;;6301794;28;20237;-66
2021/03/31 13:07:39;;;;;;;12.20;7.20;;;27.50;26.10;;;;;;6301190;28;20248;-64
2021/03/31 13:11:02;;;;;;;9.17;7.73;;;27.50;26.30;;;;;;6301612;28;20222;-65
2021/03/31 13:18:09;;;;;;;10.60;7.80;;;27.50;26.30;;;;;;6325888;27;20600;-61
2021/03/31 13:24:59;;;;;;;9.43;8.10;;;27.30;26.50;;;;;;6321716;28;20218;-65
2021/03/31 13:31:27;;;;;;;11.30;9.50;;;27.10;27.10;;;;;;6313743;28;20230;-61
2021/03/31 13:34:35;;;;;;;11.13;8.53;;;27.10;26.80;;;;;;6317643;28;20379;-59
2021/03/31 13:37:40;;;;;;;14.10;8.90;;;26.90;27.30;;;;;;6304343;28;20231;-60
2021/03/31 13:40:42;;;;;;;9.60;8.60;;;27.00;27.10;;;;;;6314558;28;20233;-60
2021/03/31 13:43:45;;;;;;;9.07;8.23;;;27.00;27.10;;;;;;6320072;28;20250;-59
2021/03/31 13:46:50;;;;;;;13.10;9.30;;;26.80;27.20;;;;;;6320175;28;20225;-59
2021/03/31 13:49:56;;;;;;;10.40;7.80;;;26.70;27.40;;;;;;6320311;28;20232;-60
2021/03/31 13:53:20;;;;;;;11.87;9.03;;;26.60;27.60;;;;;;6302558;28;20235;-61
2021/03/31 13:56:31;;;;;;;8.93;8.03;;;26.20;27.90;;;;;;6295093;28;20238;-62
2021/03/31 13:59:37;;;;;;;10.73;7.93;;;25.90;28.30;;;;;;6295057;28;20272;-60
2021/03/31 14:02:40;;;;;;;9.40;8.30;;;26.00;28.30;;;;;;6290215;28;20682;-60
2021/03/31 14:05:43;;;;;;;8.20;7.40;;;26.00;28.30;;;;;;6294666;28;20246;-60
2021/03/31 14:09:06;;;;;;;9.87;7.83;;;26.10;28.40;;;;;;6300951;28;20218;-60
2021/03/31 14:12:29;;;;;;;9.07;8.13;;;25.70;28.80;;;;;;6319424;28;20685;-60
2021/03/31 14:15:51;;;;;;;9.03;8.20;;;25.80;28.60;;;;;;6319313;28;20234;-60
2021/03/31 14:18:54;;;;;;;9.80;7.73;;;25.60;28.80;;;;;;6319412;28;20379;-60
2021/03/31 14:21:58;;;;;;;9.43;7.77;;;25.50;28.90;;;;;;6319220;28;20234;-64
2021/03/31 14:25:02;;;;;;;8.77;7.70;;;25.50;29.20;;;;;;6318823;28;20260;-60
2021/03/31 14:28:25;;;;;;;8.40;7.40;;;25.60;29.00;;;;;;6307227;28;20230;-60
2021/03/31 14:31:33;;;;;;;10.37;8.47;;;25.70;29.10;;;;;;6303009;28;20246;-60
2021/03/31 14:34:55;;;;;;;9.00;7.03;;;25.70;29.00;;;;;;6296868;28;20576;-61
2021/03/31 14:38:18;;;;;;;12.53;8.30;;;25.30;29.50;;;;;;6302128;28;20223;-61
2021/03/31 14:41:41;;;;;;;9.17;7.77;;;25.20;29.60;;;;;;6302381;28;20241;-59
2021/03/31 14:44:45;;;;;;;9.43;8.50;;;25.10;29.50;;;;;;6302266;28;20223;-60
2021/03/31 14:47:48;;;;;;;9.30;8.30;;;25.10;29.50;;;;;;6302342;28;20230;-62
2021/03/31 14:51:10;;;;;;;10.20;7.90;;;24.90;29.90;;;;;;6299847;28;20231;-61
2021/03/31 14:57:42;;;;;;;7.90;6.30;;;24.90;30.00;;;;;;6298975;28;20216;-60
2021/03/31 15:00:44;;;;;;;8.87;6.37;;;25.00;30.00;;;;;;6300066;28;20233;-60
2021/03/31 15:03:46;;;;;;;9.17;7.17;;;24.90;30.00;;;;;;6299412;28;20234;-60
2021/03/31 15:06:48;;;;;;;9.80;7.90;;;24.80;30.10;;;;;;6300828;28;20226;-63
2021/03/31 15:09:52;;;;;;;11.33;7.60;;;24.70;30.10;;;;;;6300132;28;20227;-60
2021/03/31 15:12:54;;;;;;;10.93;7.60;;;24.80;30.20;;;;;;6300518;28;20312;-60
2021/03/31 15:16:19;;;;;;;11.43;7.13;;;24.80;30.80;;;;;;6299252;28;20705;-60
2021/03/31 15:19:25;;;;;;;10.00;6.87;;;24.80;30.20;;;;;;6300671;28;20555;-60
2021/03/31 15:22:52;;;;;;;13.07;8.10;;;24.80;30.50;;;;;;6301359;28;20239;-61
2021/03/31 15:25:55;;;;;;;8.80;7.00;;;24.80;30.80;;;;;;6301456;28;20230;-61
2021/03/31 15:28:58;;;;;;;10.80;7.27;;;24.70;30.80;;;;;;6301380;28;20234;-61
2021/03/31 15:32:20;;;;;;;11.27;7.30;;;24.70;30.90;;;;;;6300627;28;20240;-61
2021/03/31 15:35:27;;;;;;;11.40;6.47;;;24.40;31.00;;;;;;6276469;28;20238;-61
2021/03/31 15:38:35;;;;;;;11.53;7.70;;;24.40;31.30;;;;;;6275564;28;20238;-61
2021/03/31 15:41:44;;;;;;;13.90;8.40;;;24.30;31.20;;;;;;6293749;28;20238;-61
2021/03/31 15:44:51;;;;;;;8.60;7.00;;;24.30;31.20;;;;;;6301036;28;20234;-61
2021/03/31 15:47:58;;;;;;;8.50;7.13;;;24.40;31.30;;;;;;6300908;28;20234;-61
2021/03/31 15:51:06;;;;;;;7.80;7.00;;;24.50;31.30;;;;;;6300879;28;20254;-59
2021/03/31 15:54:13;;;;;;;8.53;7.23;;;24.50;31.30;;;;;;6300709;28;20701;-60
2021/03/31 15:57:21;;;;;;;8.40;7.20;;;24.40;31.40;;;;;;6300687;28;20579;-60
2021/03/31 16:00:28;;;;;;;9.27;7.27;;;24.50;31.60;;;;;;6301559;28;20207;-60
2021/03/31 16:03:36;;;;;;;9.90;7.47;;;24.50;31.40;;;;;;6325505;28;20223;-61
2021/03/31 16:10:06;;;;;;;8.50;7.27;;;24.40;31.70;;;;;;6325797;28;20223;-60
2021/03/31 16:13:14;;;;;;;12.03;7.83;;;24.40;31.70;;;;;;6325593;28;20237;-60
2021/03/31 16:16:21;;;;;;;15.47;8.47;;;24.20;31.80;;;;;;6325204;28;20227;-61
2021/03/31 16:19:28;;;;;;;13.60;7.00;;;24.20;31.80;;;;;;6325475;28;20574;-60
2021/03/31 16:22:35;;;;;;;10.60;7.50;;;24.20;31.80;;;;;;6325012;28;20226;-60
2021/03/31 16:25:37;;;;;;;7.83;6.30;;;24.10;32.00;;;;;;6325319;28;20226;-60
2021/03/31 16:28:53;;;;;;;12.27;6.80;;;24.10;32.00;;;;;;6325086;28;20565;-60
2021/03/31 16:32:00;;;;;;;6.60;5.50;;;23.90;32.20;;;;;;6325273;28;20245;-60